createdAt,value
2023-02-03T00:02:05.355Z,17.60
2023-02-03T00:12:11.923Z,17.40
2023-02-03T00:22:18.194Z,18.70
2023-02-03T00:32:24.633Z,22.90
2023-02-03T00:42:31.089Z,22.50
2023-02-03T00:52:37.582Z,17.90
2023-02-03T01:02:43.961Z,17.00
2023-02-03T01:12:50.301Z,18.10
2023-02-03T01:22:56.623Z,16.10
2023-02-03T01:33:03.247Z,14.40
2023-02-03T01:43:11.547Z,17.40
2023-02-03T01:53:17.887Z,15.90
2023-02-03T02:03:37.619Z,18.80
2023-02-03T02:13:44.689Z,18.60
2023-02-03T02:24:09.350Z,17.50
2023-02-03T02:34:37.650Z,17.50
2023-02-03T02:44:50.811Z,16.00
2023-02-03T02:55:02.971Z,15.40
2023-02-03T03:05:11.110Z,19.90
2023-02-03T03:15:23.425Z,15.60
2023-02-03T03:25:35.728Z,15.00
2023-02-03T03:35:51.401Z,16.50
2023-02-03T03:46:05.375Z,17.60
2023-02-03T03:56:15.336Z,13.80
2023-02-03T04:06:21.891Z,17.40
2023-02-03T04:16:28.259Z,17.90
2023-02-03T04:26:34.595Z,27.20
2023-02-03T04:36:40.894Z,22.20
2023-02-03T04:46:47.245Z,25.70
2023-02-03T04:56:53.675Z,20.20
2023-02-03T05:07:00.563Z,23.20
2023-02-03T05:17:06.912Z,24.60
2023-02-03T05:27:13.360Z,23.00
2023-02-03T05:37:19.671Z,29.10
2023-02-03T05:47:26.018Z,29.30
2023-02-03T05:57:32.747Z,28.10
2023-02-03T06:07:39.205Z,29.40
2023-02-03T06:17:47.275Z,28.80
2023-02-03T06:27:53.692Z,25.00
2023-02-03T06:38:00.018Z,21.40
2023-02-03T06:48:06.475Z,24.70
2023-02-03T06:58:12.838Z,24.50
2023-02-03T07:08:19.101Z,28.20
2023-02-03T07:28:54.001Z,24.00
2023-02-03T07:39:00.501Z,24.30
2023-02-03T07:49:07.229Z,24.00
2023-02-03T07:59:13.552Z,22.30
2023-02-03T08:09:19.873Z,22.20
2023-02-03T08:19:26.156Z,28.20
2023-02-03T08:29:32.426Z,26.30
2023-02-03T08:39:39.540Z,26.70
2023-02-03T08:49:46.603Z,24.70
2023-02-03T08:59:52.905Z,25.00
2023-02-03T09:09:59.189Z,24.60
2023-02-03T09:20:06.233Z,23.50
2023-02-03T09:30:14.001Z,25.40
2023-02-03T09:40:24.808Z,23.70
2023-02-03T09:50:34.506Z,21.00
2023-02-03T10:01:02.779Z,21.90
2023-02-03T10:11:39.425Z,19.10
2023-02-03T10:21:49.749Z,19.60
2023-02-03T10:31:58.945Z,20.90
2023-02-03T10:42:06.579Z,18.40
2023-02-03T10:52:32.913Z,20.10
2023-02-03T11:02:39.325Z,19.70
2023-02-03T11:12:46.022Z,22.00
2023-02-03T11:22:52.372Z,20.00
2023-02-03T11:33:02.205Z,22.80
2023-02-03T11:43:19.277Z,20.90
2023-02-03T11:53:28.577Z,21.70
2023-02-03T12:04:01.774Z,21.75
2023-02-03T12:14:38.574Z,22.90
2023-02-03T12:25:01.864Z,21.40
2023-02-03T12:35:22.525Z,20.50
2023-02-03T12:45:32.397Z,23.20
2023-02-03T12:55:53.345Z,21.90
2023-02-03T13:06:25.821Z,20.20
2023-02-03T13:16:36.822Z,22.60
2023-02-03T13:26:49.791Z,17.70
2023-02-03T13:37:24.425Z,19.00
2023-02-03T13:47:32.608Z,15.80
2023-02-03T13:57:39.827Z,15.70
2023-02-03T14:07:46.151Z,17.90
2023-02-03T14:17:52.381Z,21.80
2023-02-03T14:28:27.772Z,22.50
2023-02-03T14:38:34.598Z,23.00
2023-02-03T14:49:17.218Z,19.90
2023-02-03T14:59:26.505Z,18.80
2023-02-03T15:09:49.150Z,25.40
2023-02-03T15:19:55.797Z,22.60
2023-02-03T15:30:17.839Z,23.60
2023-02-03T15:40:25.416Z,24.70
2023-02-03T15:50:35.409Z,26.30
2023-02-03T16:00:42.524Z,32.20
2023-02-03T16:10:49.131Z,23.80
2023-02-03T16:20:55.523Z,29.40
2023-02-03T16:31:23.397Z,25.50
2023-02-03T16:41:48.276Z,29.20
2023-02-03T16:51:54.947Z,35.60
2023-02-03T17:02:01.388Z,29.50
2023-02-03T17:12:07.921Z,27.30
2023-02-03T17:22:14.281Z,26.40
2023-02-03T17:32:20.795Z,27.70
2023-02-03T18:03:08.981Z,30.00
2023-02-03T18:13:15.415Z,25.50
2023-02-03T18:23:22.142Z,26.30
2023-02-03T18:33:29.216Z,31.30
2023-02-03T18:43:35.515Z,34.40
2023-02-03T18:53:42.059Z,36.00
2023-02-03T19:03:48.461Z,40.00
2023-02-03T19:13:55.018Z,38.80
2023-02-03T19:24:01.604Z,32.60
2023-02-03T19:34:08.014Z,26.50
2023-02-03T19:44:14.868Z,23.60
2023-02-03T19:54:21.342Z,25.70
2023-02-03T20:04:30.195Z,30.60
2023-02-03T20:14:36.817Z,26.90
2023-02-03T20:24:43.349Z,33.20
2023-02-03T20:35:08.603Z,49.70
2023-02-03T20:45:18.302Z,34.10
2023-02-03T20:55:25.267Z,30.40
2023-02-03T21:05:43.332Z,35.10
2023-02-03T21:15:51.550Z,35.00
2023-02-03T21:25:57.935Z,47.80
2023-02-03T21:36:04.684Z,48.50
2023-02-03T21:46:19.119Z,34.80
2023-02-03T21:56:31.516Z,28.70
2023-02-03T22:06:45.888Z,30.70
2023-02-03T22:16:52.291Z,32.90
2023-02-03T22:27:01.367Z,29.70
2023-02-03T22:37:07.660Z,30.70
2023-02-03T22:47:13.917Z,30.40
2023-02-03T22:57:20.209Z,30.20
2023-02-03T23:07:26.621Z,28.50
2023-02-03T23:17:33.436Z,25.70
2023-02-03T23:27:39.900Z,18.40
2023-02-03T23:37:46.524Z,19.80
2023-02-03T23:47:52.823Z,16.70
2023-02-03T23:57:59.102Z,14.60
